Terminal Aerodrome Forecast
Issued by NWS

Home | Current Version | Previous Version | Text Only | Print | Product List | Glossary On
Versions: 1 2 3 4 5 6 7 8 9 10 11 12 13 14 15 16 17 18 19 20
000
FTUS42 KMLB 271436 AAA
TAFFPR
TAF AMD
KFPR 271436Z 2715/2812 35009KT 4SM -RADZ OVC015
     FM271600 02012G18KT 2SM -RADZ BR OVC008
     FM280100 04010KT P6SM VCSH SCT010 BKN020 OVC050=

USA.gov is the U.S. government's official web portal to all federal, state and local government web resources and services.